Time;durP1;ratioP1;P1;durP2;ratioP2;P2;SDS_P1;SDS_P2;PMS_P1;PMS_P2;Temp;Humidity;BMP_temperature;BMP_pressure;BME280_temperature;BME280_humidity;BME280_pressure;Samples;Min_cycle;Max_cycle;Signal;HPM_P1;HPM_P2
2022/11/20 00:01:32;;;;;;;18.33;14.85;;;;;;;2.67;58.78;101230.31;5043368;28;20108;-59
2022/11/20 00:03:58;;;;;;;19.13;14.68;;;;;;;2.62;58.84;101230.88;5042773;28;20040;-59
2022/11/20 00:06:25;;;;;;;20.40;15.55;;;;;;;2.60;58.49;101234.88;5035281;28;20058;-59
2022/11/20 00:08:54;;;;;;;18.52;15.18;;;;;;;2.61;58.50;101228.34;5032018;28;20033;-59
2022/11/20 00:11:22;;;;;;;19.23;15.32;;;;;;;2.57;58.86;101227.03;5010302;28;20033;-59
2022/11/20 00:13:50;;;;;;;20.60;15.95;;;;;;;2.55;59.06;101229.09;5025868;28;20045;-59
2022/11/20 00:16:18;;;;;;;21.70;15.27;;;;;;;2.51;58.87;101228.63;5016479;28;20087;-58
2022/11/20 00:18:44;;;;;;;19.88;15.52;;;;;;;2.50;59.51;101226.94;5027611;28;20120;-58
2022/11/20 00:21:14;;;;;;;21.50;16.00;;;;;;;2.45;59.90;101232.16;5027885;28;20048;-59
2022/11/20 00:23:41;;;;;;;24.98;15.05;;;;;;;2.45;59.61;101230.25;5021819;28;20030;-59
2022/11/20 00:26:08;;;;;;;20.15;15.30;;;;;;;2.42;59.68;101229.78;5024947;28;20045;-60
2022/11/20 00:28:34;;;;;;;19.65;13.65;;;;;;;2.39;59.06;101227.41;5026643;28;20029;-59
2022/11/20 00:31:08;;;;;;;19.25;15.27;;;;;;;2.43;59.72;101228.72;5024889;28;20030;-59
2022/11/20 00:33:34;;;;;;;20.13;15.30;;;;;;;2.38;59.07;101217.50;5023966;28;20100;-60
2022/11/20 00:36:11;;;;;;;20.88;15.43;;;;;;;2.40;59.83;101220.91;5040417;28;20036;-59
2022/11/20 00:38:37;;;;;;;19.60;14.88;;;;;;;2.34;59.37;101224.41;5046823;28;20037;-59
2022/11/20 00:41:05;;;;;;;17.58;14.90;;;;;;;2.34;58.82;101218.94;5039932;28;20500;-59
2022/11/20 00:43:31;;;;;;;19.17;14.63;;;;;;;2.36;59.33;101227.81;5043163;28;20029;-60
2022/11/20 00:46:01;;;;;;;19.10;14.93;;;;;;;2.31;58.85;101225.63;5043232;28;20472;-59
2022/11/20 00:48:26;;;;;;;18.88;15.02;;;;;;;2.30;58.86;101214.88;5029966;28;20025;-59
2022/11/20 00:50:53;;;;;;;17.27;14.02;;;;;;;2.29;59.86;101216.78;5031303;28;20388;-59
2022/11/20 00:53:18;;;;;;;18.80;14.68;;;;;;;2.28;59.65;101222.41;5030722;28;20059;-59
2022/11/20 00:56:01;;;;;;;19.83;15.23;;;;;;;2.28;59.12;101222.41;5030302;28;20049;-59
2022/11/20 00:58:32;;;;;;;19.38;14.75;;;;;;;2.26;58.97;101222.63;5031297;28;20030;-60
2022/11/20 01:01:13;;;;;;;17.92;15.00;;;;;;;2.25;59.75;101218.19;5032255;28;20029;-59
2022/11/20 01:03:46;;;;;;;17.25;14.20;;;;;;;2.21;59.63;101212.25;5030880;28;20021;-59
2022/11/20 01:06:18;;;;;;;19.13;15.40;;;;;;;2.20;59.52;101216.03;5044244;28;20491;-59
2022/11/20 01:08:45;;;;;;;20.75;16.25;;;;;;;2.20;59.51;101217.88;5042295;28;20024;-60
2022/11/20 01:11:16;;;;;;;18.75;15.13;;;;;;;2.16;60.02;101211.97;5026229;28;20029;-59
2022/11/20 01:13:42;;;;;;;18.90;14.90;;;;;;;2.19;60.25;101217.03;5028312;28;20040;-59
2022/11/20 01:16:20;;;;;;;19.02;15.18;;;;;;;2.18;60.08;101218.09;5028334;28;20033;-59
2022/11/20 01:18:48;;;;;;;18.50;15.35;;;;;;;2.14;59.58;101216.75;5030431;28;20512;-59
2022/11/20 01:21:16;;;;;;;18.08;14.80;;;;;;;2.12;59.48;101220.72;5022703;28;20469;-59
2022/11/20 01:23:43;;;;;;;20.48;15.10;;;;;;;2.07;60.08;101214.97;5026577;28;20100;-59
2022/11/20 01:26:11;;;;;;;19.20;14.73;;;;;;;2.07;59.70;101220.44;5030626;28;20480;-59
2022/11/20 01:28:37;;;;;;;19.80;14.65;;;;;;;2.07;60.15;101229.50;5017255;28;20021;-59
2022/11/20 01:31:15;;;;;;;19.17;14.77;;;;;;;2.06;59.76;101219.59;5029579;28;20763;-59
2022/11/20 01:33:42;;;;;;;20.63;14.50;;;;;;;2.03;60.42;101214.50;5028178;28;20555;-59
2022/11/20 01:36:08;;;;;;;21.13;15.43;;;;;;;2.04;60.75;101213.44;5030365;28;20473;-59
2022/11/20 01:38:33;;;;;;;20.05;15.30;;;;;;;2.01;59.65;101218.47;5020985;28;20084;-59
2022/11/20 01:40:59;;;;;;;20.77;15.48;;;;;;;2.02;60.17;101211.97;5014267;28;20464;-59
2022/11/20 01:43:25;;;;;;;20.05;14.57;;;;;;;1.99;60.20;101213.16;5031278;28;20033;-59
2022/11/20 01:46:05;;;;;;;16.98;13.90;;;;;;;2.02;59.82;101212.81;5050002;28;20029;-59
2022/11/20 01:48:44;;;;;;;20.98;16.27;;;;;;;1.99;60.68;101213.16;5030378;28;20104;-59
2022/11/20 01:51:18;;;;;;;20.58;15.50;;;;;;;1.96;60.69;101208.06;5035751;28;20040;-59
2022/11/20 01:53:45;;;;;;;21.10;15.32;;;;;;;1.93;60.36;101216.69;5043816;28;20360;-59
2022/11/20 01:56:13;;;;;;;20.48;15.30;;;;;;;1.91;59.91;101225.06;5033989;28;20029;-59
2022/11/20 01:58:43;;;;;;;20.48;15.20;;;;;;;1.89;60.27;101218.94;5039653;28;20024;-59
2022/11/20 02:01:09;;;;;;;18.77;14.30;;;;;;;1.89;60.18;101221.69;5043368;28;20047;-59
2022/11/20 02:03:35;;;;;;;19.63;15.68;;;;;;;1.90;60.12;101222.53;5034013;28;20097;-59
2022/11/20 02:06:12;;;;;;;19.33;14.93;;;;;;;1.90;60.52;101209.69;5033123;28;20030;-59
2022/11/20 02:08:39;;;;;;;21.48;14.95;;;;;;;1.90;60.97;101206.94;5034213;28;20030;-59
2022/11/20 02:11:04;;;;;;;19.85;15.55;;;;;;;1.88;61.29;101216.38;5032574;28;20419;-59
2022/11/20 02:13:44;;;;;;;19.40;15.30;;;;;;;1.86;60.87;101213.81;5031235;28;20036;-59
2022/11/20 02:16:17;;;;;;;18.92;14.40;;;;;;;1.84;60.55;101204.09;5037108;28;20036;-59
2022/11/20 02:18:44;;;;;;;17.40;14.35;;;;;;;1.78;61.35;101208.44;5031256;28;20476;-60
2022/11/20 02:21:19;;;;;;;20.27;14.60;;;;;;;1.80;60.91;101210.97;5030247;28;20029;-59
2022/11/20 02:24:02;;;;;;;21.23;14.95;;;;;;;1.82;60.99;101201.56;5033896;28;20041;-66
2022/11/20 02:26:30;;;;;;;18.52;15.05;;;;;;;1.77;60.86;101197.66;5030875;28;20445;-60
2022/11/20 02:28:56;;;;;;;19.23;14.55;;;;;;;1.77;60.81;101204.00;5020453;28;20030;-60
2022/11/20 02:31:21;;;;;;;20.25;15.45;;;;;;;1.74;61.24;101200.81;5030365;28;20104;-60
2022/11/20 02:33:46;;;;;;;18.98;14.80;;;;;;;1.76;61.72;101195.97;5033657;28;20862;-60
2022/11/20 02:36:16;;;;;;;17.95;14.50;;;;;;;1.72;61.39;101201.81;5033804;28;20025;-60
2022/11/20 02:38:42;;;;;;;21.75;14.30;;;;;;;1.74;61.39;101200.81;5032912;28;20527;-59
2022/11/20 02:41:07;;;;;;;19.13;14.63;;;;;;;1.71;61.12;101204.75;5025095;28;20040;-60
2022/11/20 02:43:33;;;;;;;22.08;15.13;;;;;;;1.70;61.41;101200.31;5021326;28;20034;-59
2022/11/20 02:45:58;;;;;;;18.98;14.57;;;;;;;1.68;61.10;101200.47;5023983;28;20468;-59
2022/11/20 02:48:23;;;;;;;20.13;15.00;;;;;;;1.69;61.31;101207.69;5031913;28;20083;-59
2022/11/20 02:50:48;;;;;;;19.42;15.27;;;;;;;1.75;61.32;101205.22;5037509;28;20463;-59
2022/11/20 02:53:14;;;;;;;21.02;15.45;;;;;;;1.71;61.91;101205.59;5028415;28;20038;-59
2022/11/20 02:55:39;;;;;;;18.88;15.32;;;;;;;1.73;61.48;101202.69;5019792;28;20033;-60
2022/11/20 02:58:04;;;;;;;23.92;15.90;;;;;;;1.74;61.79;101206.28;5013015;28;20486;-60
2022/11/20 03:00:30;;;;;;;22.40;16.30;;;;;;;1.71;62.44;101197.38;5022771;28;20075;-60
2022/11/20 03:02:55;;;;;;;22.23;15.98;;;;;;;1.76;62.54;101195.97;5045971;28;20033;-58
2022/11/20 03:05:20;;;;;;;23.10;16.25;;;;;;;1.76;62.23;101187.75;5032533;28;20071;-59
2022/11/20 03:07:46;;;;;;;21.60;14.70;;;;;;;1.78;61.92;101189.28;5038053;28;20112;-60
2022/11/20 03:10:11;;;;;;;19.42;15.43;;;;;;;1.79;62.04;101182.75;5035120;28;20416;-59
2022/11/20 03:12:36;;;;;;;21.52;14.85;;;;;;;1.80;62.28;101191.81;5033084;28;20480;-60
2022/11/20 03:15:02;;;;;;;21.05;15.45;;;;;;;1.78;61.96;101191.19;5029866;28;20362;-59
2022/11/20 03:17:29;;;;;;;22.70;16.15;;;;;;;1.78;61.36;101180.22;5012338;28;20120;-59
2022/11/20 03:19:54;;;;;;;22.45;15.55;;;;;;;1.78;61.90;101182.97;5027656;28;20040;-59
2022/11/20 03:22:19;;;;;;;23.02;15.27;;;;;;;1.82;62.26;101173.34;5031731;28;20039;-59
2022/11/20 03:24:44;;;;;;;21.17;15.90;;;;;;;1.83;62.27;101180.50;5031704;28;20374;-58
2022/11/20 03:27:10;;;;;;;21.23;15.75;;;;;;;1.86;61.44;101191.09;5021646;28;20133;-59
2022/11/20 03:29:35;;;;;;;20.10;15.63;;;;;;;1.86;61.38;101178.25;5028898;28;20033;-59
2022/11/20 03:32:00;;;;;;;20.83;15.90;;;;;;;1.85;61.97;101181.19;5035441;28;20073;-59
2022/11/20 03:34:26;;;;;;;21.83;15.75;;;;;;;1.81;61.68;101177.97;5031617;28;20033;-59
2022/11/20 03:36:51;;;;;;;21.88;16.02;;;;;;;1.83;61.54;101164.09;5031513;28;20068;-59
2022/11/20 03:39:16;;;;;;;22.85;16.67;;;;;;;1.84;61.40;101163.88;5030543;28;20033;-59
2022/11/20 03:41:42;;;;;;;21.20;16.05;;;;;;;1.86;61.56;101163.72;5030624;28;20025;-59
2022/11/20 03:44:10;;;;;;;25.55;16.45;;;;;;;1.83;62.07;101161.34;5030494;28;20108;-59
2022/11/20 03:46:35;;;;;;;21.17;15.80;;;;;;;1.86;61.95;101144.56;5031046;28;20018;-59
2022/11/20 03:49:01;;;;;;;24.70;16.52;;;;;;;1.85;61.92;101153.81;5031969;28;20531;-59
2022/11/20 03:51:30;;;;;;;20.02;15.27;;;;;;;1.82;61.39;101155.03;5031097;28;20045;-60
2022/11/20 03:53:59;;;;;;;19.88;14.95;;;;;;;1.85;62.04;101151.06;5032065;28;20033;-59
2022/11/20 03:56:27;;;;;;;23.38;16.83;;;;;;;1.78;62.16;101142.75;5032183;28;20029;-59
2022/11/20 03:58:52;;;;;;;19.67;15.93;;;;;;;1.80;61.64;101137.94;5031281;28;20017;-59
2022/11/20 04:01:20;;;;;;;22.38;15.30;;;;;;;1.81;62.12;101138.78;5021754;28;20034;-59
2022/11/20 04:03:46;;;;;;;21.15;15.95;;;;;;;1.80;62.20;101140.66;5025458;28;20033;-59
2022/11/20 04:06:13;;;;;;;23.17;15.50;;;;;;;1.81;61.57;101138.78;5030512;28;20034;-59
2022/11/20 04:08:39;;;;;;;21.77;16.20;;;;;;;1.79;61.13;101135.41;5030337;28;20076;-59
2022/11/20 04:11:10;;;;;;;21.42;16.13;;;;;;;1.80;61.89;101135.19;5029939;28;20076;-59
2022/11/20 04:13:35;;;;;;;20.45;16.80;;;;;;;1.81;61.73;101138.78;5031120;28;20041;-59
2022/11/20 04:16:01;;;;;;;19.77;15.43;;;;;;;1.79;60.89;101146.34;5027675;28;20099;-59
2022/11/20 04:18:26;;;;;;;20.27;15.73;;;;;;;1.82;61.57;101146.81;5016842;28;20026;-59
2022/11/20 04:20:51;;;;;;;23.98;16.27;;;;;;;1.79;61.83;101146.34;5020307;28;20047;-59
2022/11/20 04:23:16;;;;;;;19.73;15.27;;;;;;;1.81;61.56;101147.00;5030618;28;20104;-59
2022/11/20 04:25:42;;;;;;;21.50;16.60;;;;;;;1.79;61.35;101146.34;5026788;28;20039;-59
2022/11/20 04:28:07;;;;;;;24.20;17.35;;;;;;;1.76;61.18;101133.03;5030227;28;20029;-59
2022/11/20 04:30:32;;;;;;;21.55;16.17;;;;;;;1.75;61.90;101126.72;5030213;28;20029;-59
2022/11/20 04:32:57;;;;;;;22.10;16.70;;;;;;;1.70;61.88;101135.50;5029259;28;20572;-59
2022/11/20 04:35:23;;;;;;;22.80;16.10;;;;;;;1.69;62.40;101139.28;5025751;28;20160;-59
2022/11/20 04:37:51;;;;;;;21.27;15.70;;;;;;;1.65;62.37;101129.75;5030398;28;20380;-59
2022/11/20 04:40:16;;;;;;;20.50;15.82;;;;;;;1.64;61.94;101133.50;5029748;28;20091;-58
2022/11/20 04:42:41;;;;;;;22.52;16.13;;;;;;;1.60;62.22;101132.16;5029564;28;20562;-59
2022/11/20 04:45:07;;;;;;;21.88;16.55;;;;;;;1.61;62.29;101127.53;5030275;28;20084;-59
2022/11/20 04:47:32;;;;;;;24.70;16.27;;;;;;;1.58;62.67;101122.47;5028130;28;20432;-59
2022/11/20 04:49:57;;;;;;;22.15;17.13;;;;;;;1.59;62.59;101119.53;5029805;28;20037;-59
2022/11/20 04:52:23;;;;;;;23.25;18.75;;;;;;;1.59;62.83;101118.69;5028812;28;20034;-59
2022/11/20 04:54:48;;;;;;;24.00;18.90;;;;;;;1.60;62.86;101120.38;5029560;28;20021;-59
2022/11/20 04:57:14;;;;;;;22.63;17.45;;;;;;;1.57;62.00;101120.75;5029946;28;20029;-59
2022/11/20 04:59:39;;;;;;;21.95;17.02;;;;;;;1.55;62.78;101129.16;5029208;28;20025;-59
2022/11/20 05:02:04;;;;;;;21.98;16.48;;;;;;;1.57;62.23;101110.69;5028429;28;20173;-59
2022/11/20 05:04:30;;;;;;;23.45;16.52;;;;;;;1.58;61.83;101117.84;5031019;28;20112;-59
2022/11/20 05:06:55;;;;;;;20.08;15.93;;;;;;;1.57;62.57;101127.09;5029996;28;20037;-59
2022/11/20 05:09:20;;;;;;;21.45;16.50;;;;;;;1.57;61.88;101116.16;5021576;28;20033;-60
2022/11/20 05:11:45;;;;;;;22.08;16.25;;;;;;;1.55;62.30;101120.94;5030298;28;20499;-59
2022/11/20 05:14:11;;;;;;;21.77;17.08;;;;;;;1.56;62.00;101110.84;5029835;28;20041;-59
2022/11/20 05:16:36;;;;;;;20.83;16.35;;;;;;;1.57;61.99;101115.28;5029612;28;20076;-59
2022/11/20 05:19:02;;;;;;;22.92;16.60;;;;;;;1.56;62.04;101106.22;5030617;28;20052;-59
2022/11/20 05:21:30;;;;;;;19.25;15.52;;;;;;;1.52;62.50;101102.16;5028267;28;20034;-59
2022/11/20 05:23:55;;;;;;;19.42;15.90;;;;;;;1.54;62.61;101104.75;5017991;28;20513;-59
2022/11/20 05:26:21;;;;;;;20.05;16.02;;;;;;;1.53;62.98;101098.38;5028828;28;20120;-59
2022/11/20 05:28:48;;;;;;;21.95;15.32;;;;;;;1.50;62.54;101101.53;5018674;28;20029;-59
2022/11/20 05:31:16;;;;;;;21.95;16.55;;;;;;;1.53;63.03;101092.06;5030900;28;20412;-60
2022/11/20 05:33:42;;;;;;;21.73;16.73;;;;;;;1.52;63.12;101095.84;5030850;28;20076;-60
2022/11/20 05:36:09;;;;;;;22.45;16.23;;;;;;;1.56;62.42;101095.28;5030185;28;20084;-59
2022/11/20 05:38:34;;;;;;;19.30;15.48;;;;;;;1.58;62.66;101098.69;5030504;28;20022;-59
2022/11/20 05:41:15;;;;;;;21.15;15.65;;;;;;;1.60;63.11;101093.88;5030735;28;20034;-60
2022/11/20 05:43:42;;;;;;;24.50;16.42;;;;;;;1.56;62.51;101094.44;5029876;28;20037;-60
2022/11/20 05:46:10;;;;;;;23.98;17.42;;;;;;;1.56;62.62;101103.50;5030128;28;20056;-59
2022/11/20 05:48:37;;;;;;;21.00;15.80;;;;;;;1.56;62.53;101103.50;5031016;28;20504;-59
2022/11/20 05:51:03;;;;;;;23.25;17.55;;;;;;;1.55;62.42;101106.44;5029920;28;20025;-60
2022/11/20 05:53:35;;;;;;;23.73;17.88;;;;;;;1.58;62.98;101101.44;5029811;28;20128;-59
2022/11/20 05:56:06;;;;;;;23.58;17.10;;;;;;;1.58;62.62;101115.09;5030343;28;20473;-60
2022/11/20 05:58:32;;;;;;;21.48;17.25;;;;;;;1.59;62.24;101118.69;5029736;28;20080;-60
2022/11/20 06:01:19;;;;;;;22.40;16.15;;;;;;;1.66;63.23;101114.16;5030417;28;20033;-59
2022/11/20 06:03:47;;;;;;;22.75;17.90;;;;;;;1.60;62.59;101121.22;5029291;28;20061;-59
2022/11/20 06:06:13;;;;;;;23.70;17.80;;;;;;;1.61;62.99;101122.94;5030745;28;20544;-60
2022/11/20 06:08:38;;;;;;;25.40;17.73;;;;;;;1.61;63.58;101125.69;5030037;28;20052;-59
2022/11/20 06:11:05;;;;;;;28.10;20.65;;;;;;;1.59;62.92;101118.69;5025936;28;20099;-59
2022/11/20 06:13:31;;;;;;;28.77;20.38;;;;;;;1.61;63.55;101131.16;5017998;28;20030;-60
2022/11/20 06:15:56;;;;;;;26.40;18.80;;;;;;;1.62;63.96;101124.63;5022241;28;20083;-59
2022/11/20 06:18:22;;;;;;;28.02;19.35;;;;;;;1.62;63.40;101119.16;5029776;28;20029;-59
2022/11/20 06:20:47;;;;;;;27.15;20.52;;;;;;;1.64;63.21;101122.53;5028361;28;20034;-59
2022/11/20 06:23:13;;;;;;;26.02;19.33;;;;;;;1.67;63.73;101116.72;5030111;28;20039;-60
2022/11/20 06:25:39;;;;;;;27.15;19.10;;;;;;;1.70;64.20;101105.38;5030000;28;20022;-59
2022/11/20 06:28:05;;;;;;;29.25;20.60;;;;;;;1.72;64.09;101114.25;5030274;28;20035;-59
2022/11/20 06:30:30;;;;;;;28.48;20.55;;;;;;;1.76;64.54;101124.81;5030555;28;20455;-59
2022/11/20 06:32:55;;;;;;;25.95;19.83;;;;;;;1.78;64.13;101122.75;5018919;28;20052;-59
2022/11/20 06:35:20;;;;;;;26.95;19.63;;;;;;;1.79;64.13;101122.56;5030364;28;20412;-59
2022/11/20 06:37:46;;;;;;;28.13;19.33;;;;;;;1.82;63.92;101115.88;5031021;28;20030;-59
2022/11/20 06:40:11;;;;;;;27.42;19.45;;;;;;;1.83;64.03;101115.66;5030661;28;20022;-59
2022/11/20 06:42:37;;;;;;;27.38;20.10;;;;;;;1.87;64.02;101113.41;5035238;28;20242;-59
2022/11/20 06:45:02;;;;;;;27.17;20.60;;;;;;;1.90;63.73;101113.03;5034387;28;20380;-59
2022/11/20 06:47:28;;;;;;;28.67;21.42;;;;;;;1.90;64.73;101110.28;5032935;28;20056;-60
2022/11/20 06:49:53;;;;;;;29.50;21.83;;;;;;;1.92;63.76;101102.72;5033813;28;20033;-60
2022/11/20 06:52:18;;;;;;;28.38;21.27;;;;;;;1.93;63.87;101104.44;5034002;28;20362;-59
2022/11/20 06:54:44;;;;;;;29.13;21.45;;;;;;;1.92;64.55;101099.97;5033591;28;20026;-59
2022/11/20 06:57:09;;;;;;;28.08;20.70;;;;;;;1.89;64.36;101103.97;5033932;28;20535;-59
2022/11/20 06:59:34;;;;;;;27.30;21.23;;;;;;;1.89;64.59;101108.59;5034417;28;20033;-59
2022/11/20 07:01:59;;;;;;;28.35;21.70;;;;;;;1.88;63.91;101107.72;5033138;28;20112;-58
2022/11/20 07:04:25;;;;;;;27.95;21.80;;;;;;;1.88;64.66;101102.25;5033438;28;20033;-57
2022/11/20 07:06:50;;;;;;;29.27;22.00;;;;;;;1.90;64.51;101104.81;5033525;28;20093;-59
2022/11/20 07:09:16;;;;;;;28.23;21.65;;;;;;;1.90;64.59;101110.28;5032681;28;20366;-59
2022/11/20 07:11:41;;;;;;;30.95;22.83;;;;;;;1.90;64.93;101111.13;5033369;28;20057;-59
2022/11/20 07:14:06;;;;;;;27.45;22.15;;;;;;;1.94;64.80;101101.50;5025119;28;20133;-59
2022/11/20 07:16:31;;;;;;;32.75;24.15;;;;;;;1.93;64.86;101097.06;5013033;28;20030;-59
2022/11/20 07:18:57;;;;;;;31.67;24.13;;;;;;;1.96;64.53;101090.34;5027607;28;20491;-59
2022/11/20 07:21:22;;;;;;;31.60;25.45;;;;;;;1.99;64.07;101098.19;5032119;28;20025;-59
2022/11/20 07:23:47;;;;;;;34.53;25.33;;;;;;;2.00;64.63;101096.28;5033107;28;20771;-59
2022/11/20 07:26:12;;;;;;;31.55;24.83;;;;;;;2.01;63.82;101095.28;5033115;28;20073;-59
2022/11/20 07:28:38;;;;;;;31.08;24.35;;;;;;;2.01;64.65;101090.66;5032441;28;20021;-59
2022/11/20 07:31:04;;;;;;;31.95;23.58;;;;;;;2.01;64.81;101093.38;5029711;28;20040;-59
2022/11/20 07:33:30;;;;;;;28.45;21.67;;;;;;;2.01;64.45;101092.53;5033047;28;20104;-59
2022/11/20 07:35:55;;;;;;;26.77;21.73;;;;;;;2.02;64.70;101094.22;5031342;28;20033;-59
2022/11/20 07:38:21;;;;;;;25.30;20.33;;;;;;;2.02;64.64;101086.03;5032835;28;20032;-59
2022/11/20 07:40:46;;;;;;;25.23;20.38;;;;;;;2.02;64.87;101084.13;5033275;28;20029;-59
2022/11/20 07:43:11;;;;;;;26.33;19.90;;;;;;;2.04;65.13;101083.91;5032470;28;20037;-59
2022/11/20 07:45:36;;;;;;;28.20;19.63;;;;;;;2.05;65.03;101072.78;5032080;28;20381;-59
2022/11/20 07:48:08;;;;;;;25.50;19.40;;;;;;;2.05;65.32;101088.38;5019982;28;20025;-59
2022/11/20 07:50:33;;;;;;;25.23;19.48;;;;;;;2.01;65.47;101078.84;5032287;28;20032;-59
2022/11/20 07:53:04;;;;;;;25.33;19.17;;;;;;;2.00;65.32;101088.94;5021399;28;20038;-59
2022/11/20 07:55:29;;;;;;;26.23;19.58;;;;;;;2.01;65.45;101085.16;5032096;28;20116;-59
2022/11/20 07:57:56;;;;;;;26.65;20.17;;;;;;;2.02;66.26;101088.75;5032273;28;20108;-60
2022/11/20 08:00:21;;;;;;;26.77;19.88;;;;;;;2.04;66.40;101090.25;5032790;28;20026;-59
2022/11/20 08:02:46;;;;;;;26.83;19.38;;;;;;;2.06;65.92;101096.38;5032540;28;20044;-59
2022/11/20 08:05:12;;;;;;;24.25;18.58;;;;;;;2.10;66.05;101102.34;5020727;28;20034;-59
2022/11/20 08:07:38;;;;;;;25.20;19.50;;;;;;;2.13;66.30;101088.28;5013234;28;20499;-59
2022/11/20 08:10:04;;;;;;;25.50;18.98;;;;;;;2.15;66.89;101092.50;5028812;28;20048;-60
2022/11/20 08:15:13;;;;;;;23.33;18.60;;;;;;;2.26;66.70;101088.41;5032673;28;20099;-59
2022/11/20 08:17:38;;;;;;;23.17;17.98;;;;;;;2.27;66.12;101084.63;5032030;28;20057;-59
2022/11/20 08:20:04;;;;;;;24.20;18.88;;;;;;;2.30;65.90;101088.88;5027806;28;20544;-59
2022/11/20 08:22:29;;;;;;;24.60;18.90;;;;;;;2.30;66.37;101080.66;5032693;28;20095;-59
2022/11/20 08:24:54;;;;;;;26.08;18.95;;;;;;;2.29;66.42;101089.94;5031666;28;20033;-59
2022/11/20 08:27:20;;;;;;;22.75;18.38;;;;;;;2.29;66.50;101087.19;5032080;28;20110;-59
2022/11/20 08:29:45;;;;;;;26.55;18.73;;;;;;;2.30;67.09;101088.88;5032686;28;20032;-59
2022/11/20 08:32:10;;;;;;;23.10;17.90;;;;;;;2.31;66.76;101087.81;5030772;28;20042;-59
2022/11/20 08:34:35;;;;;;;25.70;18.75;;;;;;;2.28;67.15;101088.22;5031848;28;20040;-59
2022/11/20 08:37:02;;;;;;;23.75;18.77;;;;;;;2.31;67.81;101085.09;5032100;28;20346;-59
2022/11/20 08:39:27;;;;;;;24.80;18.23;;;;;;;2.35;67.37;101083.66;5031237;28;20378;-60
2022/11/20 08:41:52;;;;;;;23.98;18.13;;;;;;;2.36;67.14;101085.38;5019848;28;20483;-59
2022/11/20 08:44:18;;;;;;;24.67;17.33;;;;;;;2.36;67.86;101085.38;5029348;28;20033;-59
2022/11/20 08:46:43;;;;;;;24.10;18.40;;;;;;;2.39;67.27;101083.06;5031372;28;20033;-60
2022/11/20 08:49:11;;;;;;;24.95;18.42;;;;;;;2.42;67.49;101073.63;5020881;28;20053;-61
2022/11/20 08:51:37;;;;;;;23.58;18.65;;;;;;;2.46;68.24;101080.41;5029829;28;20108;-61
2022/11/20 08:54:03;;;;;;;28.33;19.08;;;;;;;2.53;68.32;101083.22;5029865;28;20029;-61
2022/11/20 08:56:28;;;;;;;24.08;18.52;;;;;;;2.55;67.99;101086.59;5026220;28;20045;-60
2022/11/20 08:58:53;;;;;;;26.13;19.13;;;;;;;2.59;68.50;101082.44;5030258;28;20477;-60
2022/11/20 09:01:23;;;;;;;25.45;18.75;;;;;;;2.67;68.78;101085.91;5030422;28;20092;-59
2022/11/20 09:03:49;;;;;;;24.77;18.92;;;;;;;2.69;68.66;101081.06;5028970;28;20413;-59
2022/11/20 09:06:15;;;;;;;26.50;19.25;;;;;;;2.74;69.69;101074.16;5019777;28;20029;-58
2022/11/20 09:08:40;;;;;;;24.48;18.35;;;;;;;2.73;68.41;101073.31;5031543;28;20749;-60
2022/11/20 09:11:06;;;;;;;26.83;18.88;;;;;;;2.73;68.70;101077.94;5033703;28;20083;-59
2022/11/20 09:13:33;;;;;;;25.77;17.80;;;;;;;2.70;69.45;101069.06;5033890;28;20029;-59
2022/11/20 09:16:01;;;;;;;28.33;18.92;;;;;;;2.75;69.34;101068.50;5026861;28;20673;-60
2022/11/20 09:18:28;;;;;;;29.55;20.02;;;;;;;2.79;69.08;101063.44;5027638;28;20029;-59
2022/11/20 09:21:01;;;;;;;34.20;21.73;;;;;;;2.81;69.41;101070.44;5028842;28;20519;-60
2022/11/20 09:23:30;;;;;;;32.75;23.05;;;;;;;2.85;69.20;101059.94;5030222;28;20083;-60
2022/11/20 09:25:59;;;;;;;34.35;22.30;;;;;;;2.88;69.57;101065.03;5030064;28;20043;-60
2022/11/20 09:28:25;;;;;;;37.25;23.83;;;;;;;2.92;69.84;101056.19;5032595;28;20073;-59
2022/11/20 09:30:50;;;;;;;31.83;22.35;;;;;;;2.93;69.39;101043.34;5030013;28;20096;-59
2022/11/20 09:33:15;;;;;;;33.75;22.00;;;;;;;2.97;69.85;101041.88;5030153;28;21617;-60
2022/11/20 09:35:41;;;;;;;36.67;21.20;;;;;;;3.01;69.98;101045.09;5030185;28;20053;-60
2022/11/20 09:38:07;;;;;;;36.38;22.23;;;;;;;3.02;69.83;101038.53;5029550;28;20025;-61
2022/11/20 09:40:35;;;;;;;34.50;21.65;;;;;;;3.05;70.53;101027.19;5029691;28;20025;-61
2022/11/20 09:43:39;;;;;;;33.60;22.13;;;;;;;3.10;70.22;101030.16;5030745;28;20036;-60
2022/11/20 09:46:08;;;;;;;36.35;22.40;;;;;;;3.08;70.34;101024.06;5027784;28;20060;-60
2022/11/20 09:48:55;;;;;;;40.90;23.00;;;;;;;3.13;69.72;101027.03;5028544;28;20025;-61
2022/11/20 09:51:35;;;;;;;45.80;25.08;;;;;;;3.15;70.55;101020.31;5030731;28;20065;-61
2022/11/20 09:54:06;;;;;;;49.47;25.80;;;;;;;3.14;70.57;101026.84;5028114;28;20114;-62
2022/11/20 09:56:39;;;;;;;44.50;24.90;;;;;;;3.15;70.97;101019.47;5028422;28;20038;-61
2022/11/20 09:59:07;;;;;;;47.28;26.05;;;;;;;3.16;70.21;101008.28;5031053;28;20539;-61
2022/11/20 10:01:36;;;;;;;47.63;25.98;;;;;;;3.18;70.88;101011.69;5027361;28;20399;-62
2022/11/20 10:04:09;;;;;;;47.47;26.85;;;;;;;3.22;70.76;101005.78;5026364;28;20040;-62
2022/11/20 10:06:52;;;;;;;46.13;26.13;;;;;;;3.25;70.59;100999.88;5031064;28;20104;-62
2022/11/20 10:09:50;;;;;;;44.80;26.10;;;;;;;3.31;70.75;100996.34;5025501;28;20615;-61
2022/11/20 10:12:26;;;;;;;43.50;24.80;;;;;;;3.29;70.45;100990.22;5024475;28;20075;-61
2022/11/20 10:15:00;;;;;;;48.47;27.60;;;;;;;3.31;70.59;100974.41;5028466;28;20026;-62
2022/11/20 10:17:31;;;;;;;43.20;24.65;;;;;;;3.29;70.75;100974.59;5028673;28;20037;-61
2022/11/20 10:20:24;;;;;;;44.97;25.85;;;;;;;3.33;70.70;100964.91;5027623;28;20480;-62
2022/11/20 10:22:58;;;;;;;47.22;26.05;;;;;;;3.36;71.23;100956.28;5027366;28;20045;-62
2022/11/20 10:25:38;;;;;;;47.65;26.50;;;;;;;3.39;71.45;100942.16;5031037;28;20057;-62
2022/11/20 10:28:25;;;;;;;45.60;26.00;;;;;;;3.44;70.93;100947.03;5030460;28;20029;-62
2022/11/20 10:31:00;;;;;;;49.55;26.98;;;;;;;3.48;71.23;100951.06;5029810;28;20033;-61
2022/11/20 10:33:29;;;;;;;51.15;27.65;;;;;;;3.47;71.12;100943.88;5017658;28;20054;-62
2022/11/20 10:36:07;;;;;;;46.75;27.10;;;;;;;3.52;71.22;100937.78;5026631;28;20156;-62
2022/11/20 10:38:44;;;;;;;48.78;25.77;;;;;;;3.53;71.43;100936.72;5027515;28;20352;-61
2022/11/20 10:41:25;;;;;;;52.08;28.67;;;;;;;3.55;71.35;100924.50;5030860;28;20034;-62
2022/11/20 10:44:12;;;;;;;50.78;29.13;;;;;;;3.56;71.11;100917.94;5028664;28;20507;-63
2022/11/20 10:46:47;;;;;;;49.72;28.65;;;;;;;3.57;71.23;100913.28;5028814;28;20040;-62
2022/11/20 10:49:18;;;;;;;54.50;29.88;;;;;;;3.57;71.50;100911.41;5030808;28;20029;-62
2022/11/20 10:52:08;;;;;;;57.65;30.30;;;;;;;3.60;71.80;100910.16;5031116;28;20097;-62
2022/11/20 10:54:45;;;;;;;54.90;31.05;;;;;;;3.62;71.90;100903.41;5032276;28;20036;-62
2022/11/20 10:57:25;;;;;;;50.80;29.73;;;;;;;3.64;71.69;100897.69;5031854;28;20485;-62
2022/11/20 11:00:09;;;;;;;52.95;30.45;;;;;;;3.69;71.68;100887.81;5030859;28;20041;-62
2022/11/20 11:02:41;;;;;;;55.35;31.17;;;;;;;3.68;71.84;100883.34;5031421;28;20473;-62
2022/11/20 11:05:21;;;;;;;55.30;31.52;;;;;;;3.70;71.89;100877.66;5031462;28;20045;-62
2022/11/20 11:07:50;;;;;;;49.90;29.27;;;;;;;3.69;71.54;100887.81;5030683;28;20022;-63
2022/11/20 11:10:17;;;;;;;58.83;31.20;;;;;;;3.73;71.68;100876.38;5031174;28;20030;-62
2022/11/20 11:12:50;;;;;;;49.55;29.55;;;;;;;3.74;71.67;100876.19;5029181;28;20079;-62
2022/11/20 11:15:38;;;;;;;53.10;31.00;;;;;;;3.76;71.92;100881.47;5028896;28;20048;-62
2022/11/20 11:18:04;;;;;;;48.88;29.98;;;;;;;3.73;72.21;100874.50;5027812;28;20061;-63
2022/11/20 11:20:29;;;;;;;51.10;30.63;;;;;;;3.71;72.39;100870.28;5029884;28;20056;-62
2022/11/20 11:22:57;;;;;;;52.35;29.45;;;;;;;3.67;72.79;100878.91;5030827;28;20131;-61
2022/11/20 11:25:30;;;;;;;49.17;28.42;;;;;;;3.72;72.86;100877.44;5028311;28;20036;-60